Blowing Rock, North Carolina
Current Conditions -  °F | °C
As of 11:15 AM on Wednesday 26 Nov 2014 (Local Time) from KTNB Reporting Station
Clear Clear  
Wind Chill: 29°   Ceiling: Unl
Heat Index: 35°   Visibility: 10mi
Dew Point: 35°   Wind: 7mph
Humidity: 100%   Direction: 290°WNW
Pressure: 29.96"   Gusts: NA
Location:  36.14°N, 81.68°W
Report Text: KTNB 261615Z AUTO 29006KT 10SM CLR 02/02 A2996 RMK AO2 T00170017
Loading
Personal Weather Stations






























Interactive Weather Map New forecast layout! Learn more

10-Day Weather Forecast

Advertisements
Track Severe Weather on mobile